sensor_id;sensor_type;location;lat;lon;timestamp;pressure;altitude;pressure_sealevel;temperature;humidity
59873;BME280;50750;51.636;4.948;2023-04-15T00:01:58;100914.06;;;14.82;57.89
59873;BME280;50750;51.636;4.948;2023-04-15T00:04:26;100913.89;;;14.82;57.94
59873;BME280;50750;51.636;4.948;2023-04-15T00:06:53;100915.86;;;14.82;57.76
59873;BME280;50750;51.636;4.948;2023-04-15T00:09:20;100913.73;;;14.82;57.73
59873;BME280;50750;51.636;4.948;2023-04-15T00:11:46;100913.05;;;14.81;57.93
59873;BME280;50750;51.636;4.948;2023-04-15T00:14:13;100914.48;;;14.81;57.87
59873;BME280;50750;51.636;4.948;2023-04-15T00:16:39;100918.52;;;14.81;57.51
59873;BME280;50750;51.636;4.948;2023-04-15T00:19:06;100917.66;;;14.80;57.79
59873;BME280;50750;51.636;4.948;2023-04-15T00:21:33;100921.89;;;14.80;57.90
59873;BME280;50750;51.636;4.948;2023-04-15T00:23:59;100921.73;;;14.80;57.84
59873;BME280;50750;51.636;4.948;2023-04-15T00:26:27;100919.45;;;14.80;57.70
59873;BME280;50750;51.636;4.948;2023-04-15T00:28:53;100919.46;;;14.79;57.74
59873;BME280;50750;51.636;4.948;2023-04-15T00:31:20;100918.23;;;14.79;57.56
59873;BME280;50750;51.636;4.948;2023-04-15T00:33:46;100921.93;;;14.79;57.59
59873;BME280;50750;51.636;4.948;2023-04-15T00:36:14;100921.26;;;14.79;57.73
59873;BME280;50750;51.636;4.948;2023-04-15T00:38:40;100926.03;;;14.79;57.54
59873;BME280;50750;51.636;4.948;2023-04-15T00:41:08;100927.98;;;14.78;57.69
59873;BME280;50750;51.636;4.948;2023-04-15T00:43:35;100928.52;;;14.78;57.75
59873;BME280;50750;51.636;4.948;2023-04-15T00:46:03;100926.79;;;14.77;57.64
59873;BME280;50750;51.636;4.948;2023-04-15T00:48:30;100929.60;;;14.78;57.70
59873;BME280;50750;51.636;4.948;2023-04-15T00:50:58;100931.02;;;14.77;57.42
59873;BME280;50750;51.636;4.948;2023-04-15T00:53:24;100926.98;;;14.77;57.51
59873;BME280;50750;51.636;4.948;2023-04-15T00:55:51;100924.15;;;14.77;57.54
59873;BME280;50750;51.636;4.948;2023-04-15T00:58:17;100923.11;;;14.77;57.72
59873;BME280;50750;51.636;4.948;2023-04-15T01:00:44;100918.73;;;14.76;57.61
59873;BME280;50750;51.636;4.948;2023-04-15T01:03:12;100915.20;;;14.76;57.48
59873;BME280;50750;51.636;4.948;2023-04-15T01:05:39;100918.93;;;14.76;57.57
59873;BME280;50750;51.636;4.948;2023-04-15T01:08:07;100914.02;;;14.76;57.58
59873;BME280;50750;51.636;4.948;2023-04-15T01:10:33;100917.88;;;14.76;57.58
59873;BME280;50750;51.636;4.948;2023-04-15T01:13:02;100912.97;;;14.75;57.46
59873;BME280;50750;51.636;4.948;2023-04-15T01:15:29;100911.04;;;14.75;57.61
59873;BME280;50750;51.636;4.948;2023-04-15T01:17:59;100914.04;;;14.75;57.57
59873;BME280;50750;51.636;4.948;2023-04-15T01:20:26;100910.52;;;14.75;57.49
59873;BME280;50750;51.636;4.948;2023-04-15T01:22:54;100910.70;;;14.75;57.84
59873;BME280;50750;51.636;4.948;2023-04-15T01:25:31;100916.53;;;14.75;57.60
59873;BME280;50750;51.636;4.948;2023-04-15T01:28:00;100916.02;;;14.74;57.52
59873;BME280;50750;51.636;4.948;2023-04-15T01:30:27;100916.95;;;14.73;57.45
59873;BME280;50750;51.636;4.948;2023-04-15T01:32:53;100922.38;;;14.73;57.53
59873;BME280;50750;51.636;4.948;2023-04-15T01:35:20;100926.31;;;14.73;57.47
59873;BME280;50750;51.636;4.948;2023-04-15T01:37:48;100924.38;;;14.73;57.48
59873;BME280;50750;51.636;4.948;2023-04-15T01:40:14;100923.68;;;14.73;57.54
59873;BME280;50750;51.636;4.948;2023-04-15T01:42:41;100923.31;;;14.73;57.39
59873;BME280;50750;51.636;4.948;2023-04-15T01:45:08;100924.23;;;14.72;57.42
59873;BME280;50750;51.636;4.948;2023-04-15T01:47:35;100923.20;;;14.71;57.44
59873;BME280;50750;51.636;4.948;2023-04-15T01:50:02;100926.38;;;14.71;57.30
59873;BME280;50750;51.636;4.948;2023-04-15T01:52:28;100923.23;;;14.71;57.42
59873;BME280;50750;51.636;4.948;2023-04-15T01:54:55;100926.59;;;14.71;57.39
59873;BME280;50750;51.636;4.948;2023-04-15T01:57:22;100927.11;;;14.71;57.45
59873;BME280;50750;51.636;4.948;2023-04-15T01:59:49;100922.71;;;14.70;57.51
59873;BME280;50750;51.636;4.948;2023-04-15T02:02:15;100923.63;;;14.70;57.42
59873;BME280;50750;51.636;4.948;2023-04-15T02:04:42;100918.87;;;14.70;57.38
59873;BME280;50750;51.636;4.948;2023-04-15T02:07:09;100920.48;;;14.69;57.59
59873;BME280;50750;51.636;4.948;2023-04-15T02:09:36;100916.77;;;14.69;57.42
59873;BME280;50750;51.636;4.948;2023-04-15T02:12:04;100915.90;;;14.69;57.35
59873;BME280;50750;51.636;4.948;2023-04-15T02:14:31;100916.80;;;14.69;57.41
59873;BME280;50750;51.636;4.948;2023-04-15T02:16:57;100917.50;;;14.69;57.58
59873;BME280;50750;51.636;4.948;2023-04-15T02:19:35;100922.98;;;14.68;57.31
59873;BME280;50750;51.636;4.948;2023-04-15T02:22:01;100924.75;;;14.68;57.44
59873;BME280;50750;51.636;4.948;2023-04-15T02:24:29;100925.65;;;14.68;57.63
59873;BME280;50750;51.636;4.948;2023-04-15T02:26:56;100925.49;;;14.67;57.54
59873;BME280;50750;51.636;4.948;2023-04-15T02:29:23;100931.15;;;14.67;57.54
59873;BME280;50750;51.636;4.948;2023-04-15T02:31:49;100935.19;;;14.68;57.50
59873;BME280;50750;51.636;4.948;2023-04-15T02:34:16;100942.24;;;14.68;57.38
59873;BME280;50750;51.636;4.948;2023-04-15T02:36:42;100945.06;;;14.67;57.36
59873;BME280;50750;51.636;4.948;2023-04-15T02:39:09;100947.20;;;14.67;57.29
59873;BME280;50750;51.636;4.948;2023-04-15T02:41:36;100949.15;;;14.66;57.65
59873;BME280;50750;51.636;4.948;2023-04-15T02:44:02;100947.04;;;14.66;57.33
59873;BME280;50750;51.636;4.948;2023-04-15T02:46:29;100951.83;;;14.66;57.43
59873;BME280;50750;51.636;4.948;2023-04-15T02:48:56;100956.23;;;14.66;57.55
59873;BME280;50750;51.636;4.948;2023-04-15T02:51:24;100960.29;;;14.66;57.52
59873;BME280;50750;51.636;4.948;2023-04-15T02:53:51;100959.80;;;14.65;57.68
59873;BME280;50750;51.636;4.948;2023-04-15T02:56:18;100965.79;;;14.65;57.44
59873;BME280;50750;51.636;4.948;2023-04-15T02:58:45;100971.27;;;14.65;57.53
59873;BME280;50750;51.636;4.948;2023-04-15T03:01:12;100973.73;;;14.65;57.50
59873;BME280;50750;51.636;4.948;2023-04-15T03:03:38;100972.36;;;14.64;57.42
59873;BME280;50750;51.636;4.948;2023-04-15T03:06:05;100973.60;;;14.64;57.46
59873;BME280;50750;51.636;4.948;2023-04-15T03:08:32;100975.02;;;14.64;57.41
59873;BME280;50750;51.636;4.948;2023-04-15T03:10:58;100974.66;;;14.64;57.50
59873;BME280;50750;51.636;4.948;2023-04-15T03:13:26;100973.59;;;14.64;57.30
59873;BME280;50750;51.636;4.948;2023-04-15T03:15:52;100971.67;;;14.63;57.51
59873;BME280;50750;51.636;4.948;2023-04-15T03:18:18;100969.05;;;14.63;57.56
59873;BME280;50750;51.636;4.948;2023-04-15T03:20:45;100972.21;;;14.63;57.42
59873;BME280;50750;51.636;4.948;2023-04-15T03:23:12;100973.98;;;14.63;57.43
59873;BME280;50750;51.636;4.948;2023-04-15T03:25:38;100978.07;;;14.63;57.39
59873;BME280;50750;51.636;4.948;2023-04-15T03:28:05;100978.26;;;14.62;57.33
59873;BME280;50750;51.636;4.948;2023-04-15T03:30:31;100977.88;;;14.63;57.47
59873;BME280;50750;51.636;4.948;2023-04-15T03:32:58;100978.26;;;14.62;57.44
59873;BME280;50750;51.636;4.948;2023-04-15T03:35:24;100983.20;;;14.62;57.43
59873;BME280;50750;51.636;4.948;2023-04-15T03:37:51;100985.31;;;14.62;57.39
59873;BME280;50750;51.636;4.948;2023-04-15T03:40:18;100992.02;;;14.62;57.56
59873;BME280;50750;51.636;4.948;2023-04-15T03:42:44;100991.33;;;14.62;57.45
59873;BME280;50750;51.636;4.948;2023-04-15T03:45:11;100990.98;;;14.62;57.46
59873;BME280;50750;51.636;4.948;2023-04-15T03:47:37;100992.73;;;14.62;57.72
59873;BME280;50750;51.636;4.948;2023-04-15T03:50:05;100997.16;;;14.61;57.42
59873;BME280;50750;51.636;4.948;2023-04-15T03:52:32;101003.69;;;14.61;57.53
59873;BME280;50750;51.636;4.948;2023-04-15T03:54:59;101009.34;;;14.61;57.37
59873;BME280;50750;51.636;4.948;2023-04-15T03:57:25;101012.00;;;14.61;57.68
59873;BME280;50750;51.636;4.948;2023-04-15T03:59:52;101019.56;;;14.61;57.47
59873;BME280;50750;51.636;4.948;2023-04-15T04:02:18;101019.77;;;14.60;57.43
59873;BME280;50750;51.636;4.948;2023-04-15T04:04:45;101021.36;;;14.60;57.48
59873;BME280;50750;51.636;4.948;2023-04-15T04:07:15;101022.96;;;14.60;57.48
59873;BME280;50750;51.636;4.948;2023-04-15T04:09:42;101024.20;;;14.60;57.49
59873;BME280;50750;51.636;4.948;2023-04-15T04:12:09;101026.69;;;14.59;57.43
59873;BME280;50750;51.636;4.948;2023-04-15T04:14:35;101033.39;;;14.58;57.40
59873;BME280;50750;51.636;4.948;2023-04-15T04:17:02;101034.45;;;14.59;57.45
59873;BME280;50750;51.636;4.948;2023-04-15T04:19:28;101034.48;;;14.58;57.48
59873;BME280;50750;51.636;4.948;2023-04-15T04:21:55;101038.69;;;14.58;57.51
59873;BME280;50750;51.636;4.948;2023-04-15T04:24:22;101039.93;;;14.58;57.38
59873;BME280;50750;51.636;4.948;2023-04-15T04:26:48;101043.13;;;14.58;57.34
59873;BME280;50750;51.636;4.948;2023-04-15T04:29:15;101046.80;;;14.58;57.36
59873;BME280;50750;51.636;4.948;2023-04-15T04:31:41;101049.48;;;14.57;57.36
59873;BME280;50750;51.636;4.948;2023-04-15T04:34:08;101056.52;;;14.57;57.46
59873;BME280;50750;51.636;4.948;2023-04-15T04:36:34;101057.27;;;14.57;57.39
59873;BME280;50750;51.636;4.948;2023-04-15T04:39:01;101057.12;;;14.56;57.41
59873;BME280;50750;51.636;4.948;2023-04-15T04:41:27;101062.04;;;14.56;57.54
59873;BME280;50750;51.636;4.948;2023-04-15T04:43:54;101068.04;;;14.56;57.47
59873;BME280;50750;51.636;4.948;2023-04-15T04:46:20;101072.27;;;14.56;57.34
59873;BME280;50750;51.636;4.948;2023-04-15T04:48:47;101078.13;;;14.55;57.34
59873;BME280;50750;51.636;4.948;2023-04-15T04:51:13;101081.50;;;14.55;57.35
59873;BME280;50750;51.636;4.948;2023-04-15T04:53:40;101087.86;;;14.54;57.23
59873;BME280;50750;51.636;4.948;2023-04-15T04:56:08;101094.37;;;14.55;57.45
59873;BME280;50750;51.636;4.948;2023-04-15T04:58:34;101103.36;;;14.55;57.41
59873;BME280;50750;51.636;4.948;2023-04-15T05:01:01;101104.23;;;14.54;57.35
59873;BME280;50750;51.636;4.948;2023-04-15T05:03:28;101103.73;;;14.54;57.31
59873;BME280;50750;51.636;4.948;2023-04-15T05:05:55;101111.34;;;14.54;57.30
59873;BME280;50750;51.636;4.948;2023-04-15T05:08:21;101111.86;;;14.54;57.53
59873;BME280;50750;51.636;4.948;2023-04-15T05:10:48;101117.50;;;14.54;57.51
59873;BME280;50750;51.636;4.948;2023-04-15T05:13:14;101118.23;;;14.53;57.36
59873;BME280;50750;51.636;4.948;2023-04-15T05:15:41;101123.34;;;14.53;57.35
59873;BME280;50750;51.636;4.948;2023-04-15T05:18:08;101132.14;;;14.53;57.52
59873;BME280;50750;51.636;4.948;2023-04-15T05:20:35;101133.39;;;14.53;57.49
59873;BME280;50750;51.636;4.948;2023-04-15T05:23:01;101139.36;;;14.53;57.42
59873;BME280;50750;51.636;4.948;2023-04-15T05:25:27;101145.70;;;14.54;57.43
59873;BME280;50750;51.636;4.948;2023-04-15T05:27:54;101151.17;;;14.53;57.27
59873;BME280;50750;51.636;4.948;2023-04-15T05:30:21;101155.92;;;14.53;57.37
59873;BME280;50750;51.636;4.948;2023-04-15T05:32:47;101162.98;;;14.53;57.23
59873;BME280;50750;51.636;4.948;2023-04-15T05:35:14;101167.92;;;14.53;57.34
59873;BME280;50750;51.636;4.948;2023-04-15T05:37:40;101168.61;;;14.53;57.28
59873;BME280;50750;51.636;4.948;2023-04-15T05:40:07;101170.55;;;14.53;57.31
59873;BME280;50750;51.636;4.948;2023-04-15T05:42:36;101174.08;;;14.53;57.36
59873;BME280;50750;51.636;4.948;2023-04-15T05:45:03;101177.63;;;14.52;57.29
59873;BME280;50750;51.636;4.948;2023-04-15T05:47:35;101179.55;;;14.53;57.36
59873;BME280;50750;51.636;4.948;2023-04-15T05:50:03;101183.07;;;14.53;57.30
59873;BME280;50750;51.636;4.948;2023-04-15T05:52:30;101185.55;;;14.53;57.38
59873;BME280;50750;51.636;4.948;2023-04-15T05:54:57;101189.42;;;14.53;57.41
59873;BME280;50750;51.636;4.948;2023-04-15T05:57:23;101198.41;;;14.53;57.20
59873;BME280;50750;51.636;4.948;2023-04-15T05:59:50;101203.34;;;14.53;57.28
59873;BME280;50750;51.636;4.948;2023-04-15T06:02:19;101206.17;;;14.52;57.26
59873;BME280;50750;51.636;4.948;2023-04-15T06:04:46;101204.94;;;14.52;57.21
59873;BME280;50750;51.636;4.948;2023-04-15T06:07:13;101212.52;;;14.52;57.40
59873;BME280;50750;51.636;4.948;2023-04-15T06:09:40;101220.63;;;14.52;57.29
59873;BME280;50750;51.636;4.948;2023-04-15T06:12:06;101227.69;;;14.52;57.15
59873;BME280;50750;51.636;4.948;2023-04-15T06:14:37;101235.98;;;14.52;57.44
59873;BME280;50750;51.636;4.948;2023-04-15T06:17:04;101235.27;;;14.52;57.38
59873;BME280;50750;51.636;4.948;2023-04-15T06:19:31;101241.29;;;14.51;57.29
59873;BME280;50750;51.636;4.948;2023-04-15T06:21:58;101246.39;;;14.51;57.26
59873;BME280;50750;51.636;4.948;2023-04-15T06:24:25;101252.04;;;14.51;57.49
59873;BME280;50750;51.636;4.948;2023-04-15T06:26:51;101257.34;;;14.50;57.41
59873;BME280;50750;51.636;4.948;2023-04-15T06:29:18;101261.73;;;14.50;57.59
59873;BME280;50750;51.636;4.948;2023-04-15T06:31:46;101266.67;;;14.50;57.38
59873;BME280;50750;51.636;4.948;2023-04-15T06:34:13;101269.50;;;14.50;57.44
59873;BME280;50750;51.636;4.948;2023-04-15T06:36:39;101267.94;;;14.50;57.34
59873;BME280;50750;51.636;4.948;2023-04-15T06:39:06;101275.52;;;14.49;57.38
59873;BME280;50750;51.636;4.948;2023-04-15T06:41:32;101282.93;;;14.49;57.54
59873;BME280;50750;51.636;4.948;2023-04-15T06:43:59;101282.42;;;14.49;57.38
59873;BME280;50750;51.636;4.948;2023-04-15T06:46:26;101287.71;;;14.49;57.44
59873;BME280;50750;51.636;4.948;2023-04-15T06:48:53;101295.62;;;14.49;57.48
59873;BME280;50750;51.636;4.948;2023-04-15T06:51:19;101296.35;;;14.49;57.53
59873;BME280;50750;51.636;4.948;2023-04-15T06:53:46;101300.92;;;14.49;57.52
59873;BME280;50750;51.636;4.948;2023-04-15T06:56:12;101303.23;;;14.48;57.56
59873;BME280;50750;51.636;4.948;2023-04-15T06:58:38;101302.71;;;14.48;57.57
59873;BME280;50750;51.636;4.948;2023-04-15T07:01:05;101306.94;;;14.48;57.56
59873;BME280;50750;51.636;4.948;2023-04-15T07:03:32;101307.62;;;14.49;57.48
59873;BME280;50750;51.636;4.948;2023-04-15T07:05:58;101308.70;;;14.48;57.40
59873;BME280;50750;51.636;4.948;2023-04-15T07:08:26;101318.02;;;14.48;57.47
59873;BME280;50750;51.636;4.948;2023-04-15T07:10:53;101319.27;;;14.48;57.87
59873;BME280;50750;51.636;4.948;2023-04-15T07:13:19;101323.86;;;14.48;57.64
59873;BME280;50750;51.636;4.948;2023-04-15T07:15:46;101328.62;;;14.48;57.56
59873;BME280;50750;51.636;4.948;2023-04-15T07:18:12;101329.70;;;14.47;57.80
59873;BME280;50750;51.636;4.948;2023-04-15T07:20:39;101332.33;;;14.47;57.82
59873;BME280;50750;51.636;4.948;2023-04-15T07:23:05;101330.58;;;14.47;57.71
59873;BME280;50750;51.636;4.948;2023-04-15T07:25:32;101337.42;;;14.48;57.70
59873;BME280;50750;51.636;4.948;2023-04-15T07:27:58;101337.98;;;14.47;57.49
59873;BME280;50750;51.636;4.948;2023-04-15T07:30:25;101343.80;;;14.47;57.68
59873;BME280;50750;51.636;4.948;2023-04-15T07:32:51;101346.61;;;14.47;57.74
59873;BME280;50750;51.636;4.948;2023-04-15T07:35:18;101350.70;;;14.47;57.36
59873;BME280;50750;51.636;4.948;2023-04-15T07:37:47;101357.77;;;14.46;57.40
59873;BME280;50750;51.636;4.948;2023-04-15T07:40:14;101359.17;;;14.46;57.42
59873;BME280;50750;51.636;4.948;2023-04-15T07:42:41;101366.06;;;14.46;57.58
59873;BME280;50750;51.636;4.948;2023-04-15T07:45:09;101370.83;;;14.46;57.49
59873;BME280;50750;51.636;4.948;2023-04-15T07:47:36;101375.73;;;14.46;57.69
59873;BME280;50750;51.636;4.948;2023-04-15T07:50:03;101378.39;;;14.46;57.57
59873;BME280;50750;51.636;4.948;2023-04-15T07:52:30;101383.67;;;14.46;57.51
59873;BME280;50750;51.636;4.948;2023-04-15T07:54:56;101392.83;;;14.46;57.68
59873;BME280;50750;51.636;4.948;2023-04-15T07:57:23;101396.68;;;14.47;57.67
59873;BME280;50750;51.636;4.948;2023-04-15T07:59:49;101400.04;;;14.47;57.51
59873;BME280;50750;51.636;4.948;2023-04-15T08:02:16;101401.30;;;14.46;57.47
59873;BME280;50750;51.636;4.948;2023-04-15T08:04:43;101408.95;;;14.44;57.14
59873;BME280;50750;51.636;4.948;2023-04-15T08:07:10;101410.59;;;14.42;57.10
59873;BME280;50750;51.636;4.948;2023-04-15T08:09:37;101418.71;;;14.42;57.16
59873;BME280;50750;51.636;4.948;2023-04-15T08:12:03;101420.15;;;14.41;57.32
59873;BME280;50750;51.636;4.948;2023-04-15T08:14:30;101422.42;;;14.42;57.55
59873;BME280;50750;51.636;4.948;2023-04-15T08:16:57;101428.23;;;14.42;57.76
59873;BME280;50750;51.636;4.948;2023-04-15T08:19:23;101429.11;;;14.42;57.70
59873;BME280;50750;51.636;4.948;2023-04-15T08:21:50;101429.63;;;14.43;57.79
59873;BME280;50750;51.636;4.948;2023-04-15T08:24:17;101436.09;;;14.44;58.00
59873;BME280;50750;51.636;4.948;2023-04-15T08:26:44;101436.63;;;14.44;57.96
59873;BME280;50750;51.636;4.948;2023-04-15T08:29:12;101441.55;;;14.44;58.04
59873;BME280;50750;51.636;4.948;2023-04-15T08:31:38;101446.09;;;14.45;58.10
59873;BME280;50750;51.636;4.948;2023-04-15T08:34:05;101450.13;;;14.46;58.22
59873;BME280;50750;51.636;4.948;2023-04-15T08:36:31;101453.29;;;14.45;58.15
59873;BME280;50750;51.636;4.948;2023-04-15T08:38:58;101456.63;;;14.46;58.24
59873;BME280;50750;51.636;4.948;2023-04-15T08:41:33;101461.55;;;14.46;58.09
59873;BME280;50750;51.636;4.948;2023-04-15T08:44:03;101463.67;;;14.46;58.07
59873;BME280;50750;51.636;4.948;2023-04-15T08:46:31;101470.53;;;14.46;58.19
59873;BME280;50750;51.636;4.948;2023-04-15T08:49:03;101475.08;;;14.47;57.92
59873;BME280;50750;51.636;4.948;2023-04-15T08:51:31;101478.95;;;14.47;58.23
59873;BME280;50750;51.636;4.948;2023-04-15T08:53:59;101483.35;;;14.47;58.15
59873;BME280;50750;51.636;4.948;2023-04-15T08:56:27;101494.58;;;14.49;58.18
59873;BME280;50750;51.636;4.948;2023-04-15T08:58:54;101498.98;;;14.49;58.32
59873;BME280;50750;51.636;4.948;2023-04-15T09:01:20;101501.96;;;14.49;58.20
59873;BME280;50750;51.636;4.948;2023-04-15T09:03:48;101503.52;;;14.50;58.23
59873;BME280;50750;51.636;4.948;2023-04-15T09:06:16;101507.55;;;14.51;58.27
59873;BME280;50750;51.636;4.948;2023-04-15T09:08:43;101506.13;;;14.51;58.30
59873;BME280;50750;51.636;4.948;2023-04-15T09:11:10;101506.64;;;14.52;58.32
59873;BME280;50750;51.636;4.948;2023-04-15T09:13:36;101510.85;;;14.52;58.27
59873;BME280;50750;51.636;4.948;2023-04-15T09:16:06;101513.67;;;14.53;58.24
59873;BME280;50750;51.636;4.948;2023-04-15T09:18:34;101517.17;;;14.54;58.30
59873;BME280;50750;51.636;4.948;2023-04-15T09:23:31;101524.71;;;14.55;58.11
59873;BME280;50750;51.636;4.948;2023-04-15T09:25:58;101529.80;;;14.55;58.23
59873;BME280;50750;51.636;4.948;2023-04-15T09:28:27;101531.54;;;14.56;58.28
59873;BME280;50750;51.636;4.948;2023-04-15T09:30:55;101539.27;;;14.56;57.66
59873;BME280;50750;51.636;4.948;2023-04-15T09:33:24;101541.92;;;14.56;57.28
59873;BME280;50750;51.636;4.948;2023-04-15T09:36:00;101541.72;;;14.57;57.20
59873;BME280;50750;51.636;4.948;2023-04-15T09:38:27;101545.41;;;14.57;56.99
59873;BME280;50750;51.636;4.948;2023-04-15T09:40:54;101545.73;;;14.58;57.28
59873;BME280;50750;51.636;4.948;2023-04-15T09:43:21;101548.55;;;14.58;57.28
59873;BME280;50750;51.636;4.948;2023-04-15T09:45:50;101551.00;;;14.59;57.38
59873;BME280;50750;51.636;4.948;2023-04-15T09:48:20;101556.80;;;14.60;57.51
59873;BME280;50750;51.636;4.948;2023-04-15T09:50:48;101559.73;;;14.61;57.57
59873;BME280;50750;51.636;4.948;2023-04-15T09:53:20;101567.09;;;14.62;57.68
59873;BME280;50750;51.636;4.948;2023-04-15T09:55:52;101572.50;;;14.64;57.34
59873;BME280;50750;51.636;4.948;2023-04-15T09:58:20;101572.25;;;14.66;57.43
59873;BME280;50750;51.636;4.948;2023-04-15T10:00:50;101576.43;;;14.67;57.65
59873;BME280;50750;51.636;4.948;2023-04-15T10:03:19;101575.34;;;14.68;57.64
59873;BME280;50750;51.636;4.948;2023-04-15T10:05:48;101577.24;;;14.69;57.74
59873;BME280;50750;51.636;4.948;2023-04-15T10:08:20;101575.65;;;14.70;57.65
59873;BME280;50750;51.636;4.948;2023-04-15T10:10:47;101580.38;;;14.70;57.88
59873;BME280;50750;51.636;4.948;2023-04-15T10:13:20;101580.54;;;14.71;57.69
59873;BME280;50750;51.636;4.948;2023-04-15T10:15:58;101585.27;;;14.71;57.86
59873;BME280;50750;51.636;4.948;2023-04-15T10:18:27;101588.08;;;14.72;57.71
59873;BME280;50750;51.636;4.948;2023-04-15T10:20:54;101585.05;;;14.73;57.86
59873;BME280;50750;51.636;4.948;2023-04-15T10:23:22;101579.77;;;14.73;57.90
59873;BME280;50750;51.636;4.948;2023-04-15T10:25:51;101583.98;;;14.73;57.82
59873;BME280;50750;51.636;4.948;2023-04-15T10:28:21;101584.65;;;14.74;58.02
59873;BME280;50750;51.636;4.948;2023-04-15T10:30:48;101588.34;;;14.74;57.76
59873;BME280;50750;51.636;4.948;2023-04-15T10:33:17;101588.70;;;14.75;57.80
59873;BME280;50750;51.636;4.948;2023-04-15T10:35:47;101592.73;;;14.75;57.94
59873;BME280;50750;51.636;4.948;2023-04-15T10:38:31;101596.07;;;14.76;57.90
59873;BME280;50750;51.636;4.948;2023-04-15T10:43:52;101600.09;;;14.76;57.82
59873;BME280;50750;51.636;4.948;2023-04-15T10:46:37;101603.77;;;14.76;57.94
59873;BME280;50750;51.636;4.948;2023-04-15T10:49:15;101598.11;;;14.77;58.03
59873;BME280;50750;51.636;4.948;2023-04-15T10:51:50;101606.38;;;14.77;57.87
59873;BME280;50750;51.636;4.948;2023-04-15T10:59:37;101622.90;;;14.79;58.02
59873;BME280;50750;51.636;4.948;2023-04-15T11:02:05;101626.74;;;14.80;58.07
59873;BME280;50750;51.636;4.948;2023-04-15T11:12:44;101629.67;;;14.82;57.99
59873;BME280;50750;51.636;4.948;2023-04-15T11:15:32;101632.31;;;14.83;57.87
59873;BME280;50750;51.636;4.948;2023-04-15T11:20:41;101635.98;;;14.84;58.10
59873;BME280;50750;51.636;4.948;2023-04-15T11:23:10;101638.92;;;14.85;58.00
59873;BME280;50750;51.636;4.948;2023-04-15T11:25:37;101640.14;;;14.85;57.92
59873;BME280;50750;51.636;4.948;2023-04-15T11:28:04;101646.29;;;14.86;57.89
59873;BME280;50750;51.636;4.948;2023-04-15T11:30:33;101647.98;;;14.87;57.92
59873;BME280;50750;51.636;4.948;2023-04-15T11:33:01;101648.33;;;14.88;58.01
59873;BME280;50750;51.636;4.948;2023-04-15T11:35:29;101653.40;;;14.89;57.90
59873;BME280;50750;51.636;4.948;2023-04-15T11:37:56;101660.23;;;14.91;57.93
59873;BME280;50750;51.636;4.948;2023-04-15T11:40:26;101661.11;;;14.90;57.90
59873;BME280;50750;51.636;4.948;2023-04-15T11:45:29;101668.77;;;14.93;57.93
59873;BME280;50750;51.636;4.948;2023-04-15T11:48:05;101662.05;;;14.93;57.97
59873;BME280;50750;51.636;4.948;2023-04-15T11:50:32;101664.15;;;14.94;57.97
59873;BME280;50750;51.636;4.948;2023-04-15T11:53:04;101667.46;;;14.95;57.93
59873;BME280;50750;51.636;4.948;2023-04-15T11:55:41;101668.17;;;14.95;57.98
59873;BME280;50750;51.636;4.948;2023-04-15T11:58:24;101664.98;;;14.96;57.96
59873;BME280;50750;51.636;4.948;2023-04-15T12:03:24;101663.84;;;14.98;57.79
59873;BME280;50750;51.636;4.948;2023-04-15T12:13:54;101680.90;;;14.99;57.91
59873;BME280;50750;51.636;4.948;2023-04-15T12:16:23;101684.07;;;15.00;57.96
59873;BME280;50750;51.636;4.948;2023-04-15T12:18:55;101685.45;;;15.00;58.05
59873;BME280;50750;51.636;4.948;2023-04-15T12:21:24;101690.75;;;15.00;57.85
59873;BME280;50750;51.636;4.948;2023-04-15T12:23:55;101694.42;;;15.01;57.75
59873;BME280;50750;51.636;4.948;2023-04-15T12:26:27;101704.45;;;15.02;57.93
59873;BME280;50750;51.636;4.948;2023-04-15T12:29:06;101705.86;;;15.02;57.86
59873;BME280;50750;51.636;4.948;2023-04-15T12:31:34;101707.61;;;15.02;57.87
59873;BME280;50750;51.636;4.948;2023-04-15T12:34:07;101716.94;;;15.03;57.94
59873;BME280;50750;51.636;4.948;2023-04-15T12:36:34;101717.42;;;15.04;57.78
59873;BME280;50750;51.636;4.948;2023-04-15T12:39:03;101721.13;;;15.05;57.91
59873;BME280;50750;51.636;4.948;2023-04-15T12:41:31;101720.76;;;15.05;57.86
59873;BME280;50750;51.636;4.948;2023-04-15T12:43:58;101729.90;;;15.06;57.84
59873;BME280;50750;51.636;4.948;2023-04-15T12:46:25;101733.23;;;15.06;57.97
59873;BME280;50750;51.636;4.948;2023-04-15T12:48:52;101728.98;;;15.07;57.98
59873;BME280;50750;51.636;4.948;2023-04-15T12:51:19;101734.77;;;15.08;57.88
59873;BME280;50750;51.636;4.948;2023-04-15T12:53:49;101739.52;;;15.08;57.97
59873;BME280;50750;51.636;4.948;2023-04-15T12:56:16;101749.51;;;15.09;58.07
59873;BME280;50750;51.636;4.948;2023-04-15T12:58:42;101752.86;;;15.10;57.99
59873;BME280;50750;51.636;4.948;2023-04-15T13:01:09;101755.31;;;15.10;58.02
59873;BME280;50750;51.636;4.948;2023-04-15T13:03:36;101758.45;;;15.11;58.00
59873;BME280;50750;51.636;4.948;2023-04-15T13:06:03;101762.48;;;15.12;57.89
59873;BME280;50750;51.636;4.948;2023-04-15T13:08:31;101759.82;;;15.13;57.90
59873;BME280;50750;51.636;4.948;2023-04-15T13:10:57;101760.86;;;15.13;57.81
59873;BME280;50750;51.636;4.948;2023-04-15T13:13:24;101761.02;;;15.14;57.79
59873;BME280;50750;51.636;4.948;2023-04-15T13:15:50;101767.34;;;15.14;58.04
59873;BME280;50750;51.636;4.948;2023-04-15T13:18:17;101773.31;;;15.15;58.01
59873;BME280;50750;51.636;4.948;2023-04-15T13:20:43;101780.89;;;15.15;58.00
59873;BME280;50750;51.636;4.948;2023-04-15T13:23:10;101785.48;;;15.15;57.53
59873;BME280;50750;51.636;4.948;2023-04-15T13:25:37;101789.69;;;15.16;57.56
59873;BME280;50750;51.636;4.948;2023-04-15T13:28:04;101795.48;;;15.16;57.65